sensor_id;sensor_type;location;lat;lon;timestamp;P1;durP1;ratioP1;P2;durP2;ratioP2
20671;SDS011;10495;50.922;4.760;2022-10-31T00:00:51;15.10;;;9.90;;
20671;SDS011;10495;50.922;4.760;2022-10-31T00:03:17;15.47;;;8.50;;
20671;SDS011;10495;50.922;4.760;2022-10-31T00:05:43;17.67;;;10.40;;
20671;SDS011;10495;50.922;4.760;2022-10-31T00:08:11;14.43;;;9.97;;
20671;SDS011;10495;50.922;4.760;2022-10-31T00:10:39;16.67;;;10.80;;
20671;SDS011;10495;50.922;4.760;2022-10-31T00:13:06;15.93;;;11.20;;
20671;SDS011;10495;50.922;4.760;2022-10-31T00:15:33;12.13;;;8.90;;
20671;SDS011;10495;50.922;4.760;2022-10-31T00:17:59;11.30;;;8.70;;
20671;SDS011;10495;50.922;4.760;2022-10-31T00:20:25;14.80;;;9.43;;
20671;SDS011;10495;50.922;4.760;2022-10-31T00:22:50;10.93;;;8.83;;
20671;SDS011;10495;50.922;4.760;2022-10-31T00:25:16;11.67;;;8.87;;
20671;SDS011;10495;50.922;4.760;2022-10-31T00:27:41;15.10;;;9.50;;
20671;SDS011;10495;50.922;4.760;2022-10-31T00:30:07;20.00;;;10.70;;
20671;SDS011;10495;50.922;4.760;2022-10-31T00:32:33;15.77;;;9.60;;
20671;SDS011;10495;50.922;4.760;2022-10-31T00:34:58;14.10;;;10.40;;
20671;SDS011;10495;50.922;4.760;2022-10-31T00:37:24;12.43;;;9.37;;
20671;SDS011;10495;50.922;4.760;2022-10-31T00:39:49;12.40;;;9.40;;
20671;SDS011;10495;50.922;4.760;2022-10-31T00:42:15;10.70;;;8.80;;
20671;SDS011;10495;50.922;4.760;2022-10-31T00:44:41;19.10;;;10.63;;
20671;SDS011;10495;50.922;4.760;2022-10-31T00:47:06;16.10;;;9.80;;
20671;SDS011;10495;50.922;4.760;2022-10-31T00:49:32;10.30;;;8.23;;
20671;SDS011;10495;50.922;4.760;2022-10-31T00:51:57;13.40;;;8.90;;
20671;SDS011;10495;50.922;4.760;2022-10-31T00:54:23;13.30;;;8.23;;
20671;SDS011;10495;50.922;4.760;2022-10-31T00:56:48;11.50;;;8.93;;
20671;SDS011;10495;50.922;4.760;2022-10-31T00:59:14;10.37;;;8.00;;
20671;SDS011;10495;50.922;4.760;2022-10-31T01:01:39;8.73;;;6.97;;
20671;SDS011;10495;50.922;4.760;2022-10-31T01:04:05;8.97;;;7.50;;
20671;SDS011;10495;50.922;4.760;2022-10-31T01:06:31;16.07;;;10.00;;
20671;SDS011;10495;50.922;4.760;2022-10-31T01:08:56;12.20;;;9.30;;
20671;SDS011;10495;50.922;4.760;2022-10-31T01:11:23;14.73;;;9.53;;
20671;SDS011;10495;50.922;4.760;2022-10-31T01:13:52;12.67;;;8.87;;
20671;SDS011;10495;50.922;4.760;2022-10-31T01:16:20;15.03;;;9.13;;
20671;SDS011;10495;50.922;4.760;2022-10-31T01:18:47;11.40;;;8.43;;
20671;SDS011;10495;50.922;4.760;2022-10-31T01:21:14;13.63;;;9.70;;
20671;SDS011;10495;50.922;4.760;2022-10-31T01:23:41;16.13;;;9.33;;
20671;SDS011;10495;50.922;4.760;2022-10-31T01:28:47;11.47;;;8.03;;
20671;SDS011;10495;50.922;4.760;2022-10-31T01:31:15;12.50;;;8.93;;
20671;SDS011;10495;50.922;4.760;2022-10-31T01:33:42;13.57;;;9.10;;
20671;SDS011;10495;50.922;4.760;2022-10-31T01:36:12;11.83;;;7.77;;
20671;SDS011;10495;50.922;4.760;2022-10-31T01:38:41;14.87;;;8.93;;
20671;SDS011;10495;50.922;4.760;2022-10-31T01:41:07;12.13;;;8.70;;
20671;SDS011;10495;50.922;4.760;2022-10-31T01:43:43;10.30;;;8.00;;
20671;SDS011;10495;50.922;4.760;2022-10-31T01:46:08;14.10;;;9.23;;
20671;SDS011;10495;50.922;4.760;2022-10-31T01:48:34;10.90;;;8.63;;
20671;SDS011;10495;50.922;4.760;2022-10-31T01:51:00;16.63;;;9.40;;
20671;SDS011;10495;50.922;4.760;2022-10-31T01:53:26;11.57;;;9.30;;
20671;SDS011;10495;50.922;4.760;2022-10-31T01:55:51;11.20;;;8.60;;
20671;SDS011;10495;50.922;4.760;2022-10-31T01:58:22;13.93;;;9.57;;
20671;SDS011;10495;50.922;4.760;2022-10-31T02:00:52;11.30;;;8.47;;
20671;SDS011;10495;50.922;4.760;2022-10-31T02:03:21;11.67;;;8.70;;
20671;SDS011;10495;50.922;4.760;2022-10-31T02:05:49;12.27;;;8.57;;
20671;SDS011;10495;50.922;4.760;2022-10-31T02:10:45;11.20;;;9.50;;
20671;SDS011;10495;50.922;4.760;2022-10-31T02:13:11;16.27;;;9.97;;
20671;SDS011;10495;50.922;4.760;2022-10-31T02:15:38;19.40;;;9.73;;
20671;SDS011;10495;50.922;4.760;2022-10-31T02:18:05;11.43;;;9.13;;
20671;SDS011;10495;50.922;4.760;2022-10-31T02:21:18;14.10;;;9.20;;
20671;SDS011;10495;50.922;4.760;2022-10-31T02:23:42;12.40;;;8.53;;
20671;SDS011;10495;50.922;4.760;2022-10-31T02:34:25;11.13;;;8.80;;
20671;SDS011;10495;50.922;4.760;2022-10-31T02:42:43;11.73;;;8.03;;
20671;SDS011;10495;50.922;4.760;2022-10-31T02:45:35;9.17;;;7.40;;
20671;SDS011;10495;50.922;4.760;2022-10-31T02:48:17;10.03;;;7.60;;
20671;SDS011;10495;50.922;4.760;2022-10-31T02:50:50;10.80;;;7.67;;
20671;SDS011;10495;50.922;4.760;2022-10-31T02:53:20;12.53;;;9.00;;
20671;SDS011;10495;50.922;4.760;2022-10-31T02:56:04;13.00;;;9.07;;
20671;SDS011;10495;50.922;4.760;2022-10-31T02:58:38;12.57;;;8.77;;
20671;SDS011;10495;50.922;4.760;2022-10-31T03:01:26;11.57;;;7.70;;
20671;SDS011;10495;50.922;4.760;2022-10-31T03:09:37;11.93;;;8.87;;
20671;SDS011;10495;50.922;4.760;2022-10-31T03:12:49;10.17;;;7.97;;
20671;SDS011;10495;50.922;4.760;2022-10-31T03:15:23;10.37;;;8.20;;
20671;SDS011;10495;50.922;4.760;2022-10-31T03:18:01;11.70;;;8.43;;
20671;SDS011;10495;50.922;4.760;2022-10-31T03:20:45;13.90;;;9.60;;
20671;SDS011;10495;50.922;4.760;2022-10-31T03:23:17;14.13;;;9.57;;
20671;SDS011;10495;50.922;4.760;2022-10-31T03:25:44;11.27;;;8.73;;
20671;SDS011;10495;50.922;4.760;2022-10-31T03:28:12;10.90;;;8.37;;
20671;SDS011;10495;50.922;4.760;2022-10-31T03:30:41;11.77;;;8.63;;
20671;SDS011;10495;50.922;4.760;2022-10-31T03:33:10;14.53;;;8.00;;
20671;SDS011;10495;50.922;4.760;2022-10-31T03:35:41;10.53;;;8.07;;
20671;SDS011;10495;50.922;4.760;2022-10-31T03:38:10;12.70;;;7.23;;
20671;SDS011;10495;50.922;4.760;2022-10-31T03:40:36;7.97;;;6.70;;
20671;SDS011;10495;50.922;4.760;2022-10-31T03:43:05;11.03;;;8.13;;
20671;SDS011;10495;50.922;4.760;2022-10-31T03:45:43;11.30;;;7.37;;
20671;SDS011;10495;50.922;4.760;2022-10-31T03:48:10;8.37;;;6.63;;
20671;SDS011;10495;50.922;4.760;2022-10-31T03:50:39;8.70;;;6.67;;
20671;SDS011;10495;50.922;4.760;2022-10-31T03:53:11;13.07;;;8.60;;
20671;SDS011;10495;50.922;4.760;2022-10-31T03:56:02;13.33;;;8.43;;
20671;SDS011;10495;50.922;4.760;2022-10-31T03:58:41;11.93;;;7.47;;
20671;SDS011;10495;50.922;4.760;2022-10-31T04:01:13;12.53;;;8.47;;
20671;SDS011;10495;50.922;4.760;2022-10-31T04:03:41;13.00;;;7.53;;
20671;SDS011;10495;50.922;4.760;2022-10-31T04:06:08;12.70;;;7.90;;
20671;SDS011;10495;50.922;4.760;2022-10-31T04:08:39;13.60;;;7.37;;
20671;SDS011;10495;50.922;4.760;2022-10-31T04:11:23;13.07;;;7.90;;
20671;SDS011;10495;50.922;4.760;2022-10-31T04:13:53;11.57;;;8.40;;
20671;SDS011;10495;50.922;4.760;2022-10-31T04:16:20;14.33;;;8.33;;
20671;SDS011;10495;50.922;4.760;2022-10-31T04:18:48;12.00;;;8.10;;
20671;SDS011;10495;50.922;4.760;2022-10-31T04:21:13;10.93;;;7.47;;
20671;SDS011;10495;50.922;4.760;2022-10-31T04:23:39;12.07;;;7.40;;
20671;SDS011;10495;50.922;4.760;2022-10-31T04:26:04;11.10;;;7.50;;
20671;SDS011;10495;50.922;4.760;2022-10-31T04:28:30;11.83;;;7.10;;
20671;SDS011;10495;50.922;4.760;2022-10-31T04:30:57;10.43;;;7.53;;
20671;SDS011;10495;50.922;4.760;2022-10-31T04:33:23;10.93;;;7.20;;
20671;SDS011;10495;50.922;4.760;2022-10-31T04:35:48;18.00;;;7.90;;
20671;SDS011;10495;50.922;4.760;2022-10-31T04:38:14;17.73;;;8.70;;
20671;SDS011;10495;50.922;4.760;2022-10-31T04:40:40;12.53;;;8.03;;
20671;SDS011;10495;50.922;4.760;2022-10-31T04:43:05;12.73;;;7.93;;
20671;SDS011;10495;50.922;4.760;2022-10-31T04:45:31;10.70;;;8.10;;
20671;SDS011;10495;50.922;4.760;2022-10-31T04:47:56;14.53;;;8.37;;
20671;SDS011;10495;50.922;4.760;2022-10-31T04:50:22;14.43;;;8.40;;
20671;SDS011;10495;50.922;4.760;2022-10-31T04:52:48;15.13;;;7.80;;
20671;SDS011;10495;50.922;4.760;2022-10-31T04:55:13;10.67;;;8.10;;
20671;SDS011;10495;50.922;4.760;2022-10-31T04:57:41;9.57;;;7.70;;
20671;SDS011;10495;50.922;4.760;2022-10-31T05:00:10;11.17;;;8.23;;
20671;SDS011;10495;50.922;4.760;2022-10-31T05:02:47;9.67;;;8.00;;
20671;SDS011;10495;50.922;4.760;2022-10-31T05:05:14;11.80;;;9.10;;
20671;SDS011;10495;50.922;4.760;2022-10-31T05:07:41;13.63;;;8.90;;
20671;SDS011;10495;50.922;4.760;2022-10-31T05:10:08;12.23;;;8.57;;
20671;SDS011;10495;50.922;4.760;2022-10-31T05:12:35;10.70;;;8.40;;
20671;SDS011;10495;50.922;4.760;2022-10-31T05:15:01;11.07;;;8.10;;
20671;SDS011;10495;50.922;4.760;2022-10-31T05:17:26;11.73;;;7.27;;
20671;SDS011;10495;50.922;4.760;2022-10-31T05:19:52;10.73;;;7.77;;
20671;SDS011;10495;50.922;4.760;2022-10-31T05:22:17;11.57;;;7.23;;
20671;SDS011;10495;50.922;4.760;2022-10-31T05:24:43;9.53;;;7.23;;
20671;SDS011;10495;50.922;4.760;2022-10-31T05:27:08;10.47;;;7.63;;
20671;SDS011;10495;50.922;4.760;2022-10-31T05:29:34;12.40;;;7.30;;
20671;SDS011;10495;50.922;4.760;2022-10-31T05:31:59;9.80;;;7.67;;
20671;SDS011;10495;50.922;4.760;2022-10-31T05:34:25;9.13;;;7.33;;
20671;SDS011;10495;50.922;4.760;2022-10-31T05:36:50;12.90;;;8.10;;
20671;SDS011;10495;50.922;4.760;2022-10-31T05:39:16;8.90;;;7.17;;
20671;SDS011;10495;50.922;4.760;2022-10-31T05:41:42;11.40;;;7.83;;
20671;SDS011;10495;50.922;4.760;2022-10-31T05:44:07;11.47;;;8.47;;
20671;SDS011;10495;50.922;4.760;2022-10-31T05:46:33;11.57;;;8.37;;
20671;SDS011;10495;50.922;4.760;2022-10-31T05:48:58;10.70;;;7.83;;
20671;SDS011;10495;50.922;4.760;2022-10-31T05:51:24;12.43;;;7.93;;
20671;SDS011;10495;50.922;4.760;2022-10-31T05:53:49;10.27;;;6.83;;
20671;SDS011;10495;50.922;4.760;2022-10-31T05:56:15;10.57;;;7.10;;
20671;SDS011;10495;50.922;4.760;2022-10-31T05:58:41;9.40;;;7.00;;
20671;SDS011;10495;50.922;4.760;2022-10-31T06:01:06;9.90;;;7.30;;
20671;SDS011;10495;50.922;4.760;2022-10-31T06:03:32;9.00;;;6.50;;
20671;SDS011;10495;50.922;4.760;2022-10-31T06:05:57;10.70;;;8.43;;
20671;SDS011;10495;50.922;4.760;2022-10-31T06:08:23;10.13;;;7.77;;
20671;SDS011;10495;50.922;4.760;2022-10-31T06:10:49;14.40;;;8.80;;
20671;SDS011;10495;50.922;4.760;2022-10-31T06:13:14;13.47;;;8.17;;
20671;SDS011;10495;50.922;4.760;2022-10-31T06:15:43;12.07;;;8.30;;
20671;SDS011;10495;50.922;4.760;2022-10-31T06:18:09;16.00;;;10.90;;
20671;SDS011;10495;50.922;4.760;2022-10-31T06:20:35;15.30;;;10.60;;
20671;SDS011;10495;50.922;4.760;2022-10-31T06:23:00;16.33;;;11.50;;
20671;SDS011;10495;50.922;4.760;2022-10-31T06:25:26;13.53;;;10.33;;
20671;SDS011;10495;50.922;4.760;2022-10-31T06:27:52;12.90;;;9.07;;
20671;SDS011;10495;50.922;4.760;2022-10-31T06:30:17;12.17;;;8.40;;
20671;SDS011;10495;50.922;4.760;2022-10-31T06:32:43;14.77;;;8.60;;
20671;SDS011;10495;50.922;4.760;2022-10-31T06:35:09;10.77;;;8.33;;
20671;SDS011;10495;50.922;4.760;2022-10-31T06:37:35;11.00;;;7.90;;
20671;SDS011;10495;50.922;4.760;2022-10-31T06:40:00;9.70;;;7.70;;
20671;SDS011;10495;50.922;4.760;2022-10-31T06:42:26;11.77;;;8.03;;
20671;SDS011;10495;50.922;4.760;2022-10-31T06:44:51;15.10;;;9.30;;
20671;SDS011;10495;50.922;4.760;2022-10-31T06:47:17;12.13;;;8.60;;
20671;SDS011;10495;50.922;4.760;2022-10-31T06:49:42;19.43;;;9.33;;
20671;SDS011;10495;50.922;4.760;2022-10-31T06:52:08;14.83;;;9.40;;
20671;SDS011;10495;50.922;4.760;2022-10-31T06:54:33;12.13;;;8.33;;
20671;SDS011;10495;50.922;4.760;2022-10-31T06:56:59;12.00;;;8.87;;
20671;SDS011;10495;50.922;4.760;2022-10-31T06:59:25;14.97;;;9.67;;
20671;SDS011;10495;50.922;4.760;2022-10-31T07:01:50;12.20;;;8.80;;
20671;SDS011;10495;50.922;4.760;2022-10-31T07:04:16;18.27;;;10.40;;
20671;SDS011;10495;50.922;4.760;2022-10-31T07:06:41;17.57;;;10.87;;
20671;SDS011;10495;50.922;4.760;2022-10-31T07:09:07;16.13;;;10.73;;
20671;SDS011;10495;50.922;4.760;2022-10-31T07:11:33;12.93;;;9.23;;
20671;SDS011;10495;50.922;4.760;2022-10-31T07:13:58;16.10;;;10.77;;
20671;SDS011;10495;50.922;4.760;2022-10-31T07:16:24;17.63;;;11.87;;
20671;SDS011;10495;50.922;4.760;2022-10-31T07:18:49;16.40;;;10.97;;
20671;SDS011;10495;50.922;4.760;2022-10-31T07:21:15;17.03;;;11.33;;
20671;SDS011;10495;50.922;4.760;2022-10-31T07:23:41;15.87;;;9.90;;
20671;SDS011;10495;50.922;4.760;2022-10-31T07:26:07;13.60;;;9.30;;
20671;SDS011;10495;50.922;4.760;2022-10-31T07:28:34;14.23;;;9.83;;
20671;SDS011;10495;50.922;4.760;2022-10-31T07:30:59;14.97;;;9.60;;
20671;SDS011;10495;50.922;4.760;2022-10-31T07:33:25;15.47;;;10.83;;
20671;SDS011;10495;50.922;4.760;2022-10-31T07:35:51;23.00;;;13.23;;
20671;SDS011;10495;50.922;4.760;2022-10-31T07:38:17;17.27;;;11.00;;
20671;SDS011;10495;50.922;4.760;2022-10-31T07:40:43;15.47;;;10.80;;
20671;SDS011;10495;50.922;4.760;2022-10-31T07:43:10;21.40;;;11.87;;
20671;SDS011;10495;50.922;4.760;2022-10-31T07:45:36;16.07;;;11.40;;
20671;SDS011;10495;50.922;4.760;2022-10-31T07:48:02;15.80;;;11.47;;
20671;SDS011;10495;50.922;4.760;2022-10-31T07:50:29;21.77;;;12.17;;
20671;SDS011;10495;50.922;4.760;2022-10-31T07:52:58;16.97;;;12.00;;
20671;SDS011;10495;50.922;4.760;2022-10-31T07:55:31;16.47;;;10.60;;
20671;SDS011;10495;50.922;4.760;2022-10-31T08:00:22;11.97;;;8.43;;
20671;SDS011;10495;50.922;4.760;2022-10-31T08:02:48;21.23;;;12.30;;
20671;SDS011;10495;50.922;4.760;2022-10-31T08:05:32;19.20;;;11.90;;
20671;SDS011;10495;50.922;4.760;2022-10-31T08:07:58;21.73;;;13.90;;
20671;SDS011;10495;50.922;4.760;2022-10-31T08:10:24;18.20;;;12.07;;
20671;SDS011;10495;50.922;4.760;2022-10-31T08:12:57;19.70;;;12.97;;
20671;SDS011;10495;50.922;4.760;2022-10-31T08:15:24;23.93;;;13.67;;
20671;SDS011;10495;50.922;4.760;2022-10-31T08:17:50;14.73;;;11.30;;
20671;SDS011;10495;50.922;4.760;2022-10-31T08:20:16;18.33;;;12.23;;
20671;SDS011;10495;50.922;4.760;2022-10-31T08:22:42;21.00;;;14.70;;
20671;SDS011;10495;50.922;4.760;2022-10-31T08:25:08;23.57;;;13.67;;
20671;SDS011;10495;50.922;4.760;2022-10-31T08:27:33;22.60;;;14.07;;
20671;SDS011;10495;50.922;4.760;2022-10-31T08:29:59;23.77;;;14.87;;
20671;SDS011;10495;50.922;4.760;2022-10-31T08:32:24;25.47;;;15.33;;
20671;SDS011;10495;50.922;4.760;2022-10-31T08:34:50;24.23;;;15.57;;
20671;SDS011;10495;50.922;4.760;2022-10-31T08:37:16;25.37;;;14.67;;
20671;SDS011;10495;50.922;4.760;2022-10-31T08:39:47;24.57;;;14.13;;
20671;SDS011;10495;50.922;4.760;2022-10-31T08:42:13;24.20;;;15.10;;
20671;SDS011;10495;50.922;4.760;2022-10-31T08:44:39;26.17;;;15.50;;
20671;SDS011;10495;50.922;4.760;2022-10-31T08:47:04;24.33;;;16.07;;
20671;SDS011;10495;50.922;4.760;2022-10-31T08:49:30;30.30;;;21.03;;
20671;SDS011;10495;50.922;4.760;2022-10-31T08:51:56;28.07;;;17.90;;
20671;SDS011;10495;50.922;4.760;2022-10-31T08:54:21;27.30;;;15.23;;
20671;SDS011;10495;50.922;4.760;2022-10-31T08:56:47;26.43;;;16.70;;
20671;SDS011;10495;50.922;4.760;2022-10-31T08:59:12;28.27;;;17.37;;
20671;SDS011;10495;50.922;4.760;2022-10-31T09:01:38;35.90;;;17.13;;
20671;SDS011;10495;50.922;4.760;2022-10-31T09:04:03;24.93;;;16.77;;
20671;SDS011;10495;50.922;4.760;2022-10-31T09:06:29;26.60;;;17.20;;
20671;SDS011;10495;50.922;4.760;2022-10-31T09:08:54;26.03;;;17.47;;
20671;SDS011;10495;50.922;4.760;2022-10-31T09:11:20;29.77;;;18.77;;
20671;SDS011;10495;50.922;4.760;2022-10-31T09:13:45;31.73;;;19.37;;
20671;SDS011;10495;50.922;4.760;2022-10-31T09:16:11;30.63;;;17.90;;
20671;SDS011;10495;50.922;4.760;2022-10-31T09:18:37;28.70;;;18.33;;
20671;SDS011;10495;50.922;4.760;2022-10-31T09:21:02;22.53;;;15.80;;
20671;SDS011;10495;50.922;4.760;2022-10-31T09:23:28;20.23;;;15.60;;
20671;SDS011;10495;50.922;4.760;2022-10-31T09:25:54;26.80;;;17.27;;
20671;SDS011;10495;50.922;4.760;2022-10-31T09:28:21;24.13;;;17.13;;
20671;SDS011;10495;50.922;4.760;2022-10-31T09:30:48;31.83;;;16.83;;
20671;SDS011;10495;50.922;4.760;2022-10-31T09:33:16;24.40;;;15.37;;
20671;SDS011;10495;50.922;4.760;2022-10-31T09:35:42;26.67;;;16.93;;
20671;SDS011;10495;50.922;4.760;2022-10-31T09:38:11;23.30;;;15.57;;
20671;SDS011;10495;50.922;4.760;2022-10-31T09:40:45;24.80;;;17.00;;
20671;SDS011;10495;50.922;4.760;2022-10-31T09:43:29;25.80;;;15.10;;
20671;SDS011;10495;50.922;4.760;2022-10-31T09:52:10;21.57;;;14.30;;
20671;SDS011;10495;50.922;4.760;2022-10-31T09:55:00;21.63;;;14.70;;
20671;SDS011;10495;50.922;4.760;2022-10-31T09:57:38;18.93;;;13.10;;
20671;SDS011;10495;50.922;4.760;2022-10-31T10:00:06;26.80;;;16.30;;
20671;SDS011;10495;50.922;4.760;2022-10-31T10:02:51;24.10;;;15.77;;
20671;SDS011;10495;50.922;4.760;2022-10-31T10:05:34;19.60;;;12.90;;
20671;SDS011;10495;50.922;4.760;2022-10-31T10:08:13;27.40;;;16.77;;
20671;SDS011;10495;50.922;4.760;2022-10-31T10:10:49;23.83;;;15.47;;
20671;SDS011;10495;50.922;4.760;2022-10-31T10:19:09;25.93;;;15.00;;
20671;SDS011;10495;50.922;4.760;2022-10-31T10:33:25;18.17;;;13.23;;
20671;SDS011;10495;50.922;4.760;2022-10-31T10:36:00;23.73;;;14.00;;
20671;SDS011;10495;50.922;4.760;2022-10-31T10:41:04;21.33;;;12.23;;
20671;SDS011;10495;50.922;4.760;2022-10-31T10:43:56;20.53;;;13.30;;
20671;SDS011;10495;50.922;4.760;2022-10-31T10:49:27;26.37;;;14.10;;
20671;SDS011;10495;50.922;4.760;2022-10-31T10:51:58;24.97;;;11.87;;
20671;SDS011;10495;50.922;4.760;2022-10-31T11:00:17;26.13;;;12.83;;
20671;SDS011;10495;50.922;4.760;2022-10-31T11:02:47;28.30;;;13.77;;
20671;SDS011;10495;50.922;4.760;2022-10-31T11:05:15;19.90;;;12.33;;
20671;SDS011;10495;50.922;4.760;2022-10-31T11:08:04;20.77;;;13.60;;
20671;SDS011;10495;50.922;4.760;2022-10-31T11:10:30;20.80;;;11.87;;
20671;SDS011;10495;50.922;4.760;2022-10-31T11:12:59;19.50;;;12.30;;
20671;SDS011;10495;50.922;4.760;2022-10-31T11:15:25;23.50;;;12.13;;
20671;SDS011;10495;50.922;4.760;2022-10-31T11:17:52;21.73;;;13.87;;
20671;SDS011;10495;50.922;4.760;2022-10-31T11:23:03;19.10;;;11.17;;
20671;SDS011;10495;50.922;4.760;2022-10-31T11:25:40;23.50;;;11.90;;
20671;SDS011;10495;50.922;4.760;2022-10-31T11:28:14;19.20;;;11.27;;
20671;SDS011;10495;50.922;4.760;2022-10-31T11:30:46;17.60;;;10.73;;
20671;SDS011;10495;50.922;4.760;2022-10-31T11:33:28;23.83;;;9.60;;
20671;SDS011;10495;50.922;4.760;2022-10-31T11:35:57;14.40;;;8.80;;
20671;SDS011;10495;50.922;4.760;2022-10-31T11:38:29;19.70;;;9.17;;
20671;SDS011;10495;50.922;4.760;2022-10-31T11:41:14;15.20;;;8.93;;
20671;SDS011;10495;50.922;4.760;2022-10-31T11:43:49;17.90;;;10.10;;
20671;SDS011;10495;50.922;4.760;2022-10-31T11:48:52;13.63;;;8.77;;
20671;SDS011;10495;50.922;4.760;2022-10-31T11:51:25;20.77;;;10.07;;
20671;SDS011;10495;50.922;4.760;2022-10-31T11:54:00;16.47;;;10.20;;
20671;SDS011;10495;50.922;4.760;2022-10-31T11:56:27;21.80;;;9.13;;
20671;SDS011;10495;50.922;4.760;2022-10-31T11:59:03;15.73;;;8.87;;
20671;SDS011;10495;50.922;4.760;2022-10-31T12:01:32;36.73;;;9.27;;
20671;SDS011;10495;50.922;4.760;2022-10-31T12:04:07;12.93;;;8.53;;
20671;SDS011;10495;50.922;4.760;2022-10-31T12:06:36;14.67;;;7.93;;
20671;SDS011;10495;50.922;4.760;2022-10-31T12:09:36;13.93;;;8.57;;
20671;SDS011;10495;50.922;4.760;2022-10-31T12:17:42;16.30;;;8.17;;
20671;SDS011;10495;50.922;4.760;2022-10-31T12:20:23;19.43;;;8.80;;
20671;SDS011;10495;50.922;4.760;2022-10-31T12:23:25;19.23;;;9.20;;
20671;SDS011;10495;50.922;4.760;2022-10-31T12:45:48;18.67;;;10.33;;
20671;SDS011;10495;50.922;4.760;2022-10-31T12:56:43;16.47;;;8.43;;
20671;SDS011;10495;50.922;4.760;2022-10-31T13:06:05;14.57;;;8.13;;
20671;SDS011;10495;50.922;4.760;2022-10-31T13:08:43;16.93;;;8.47;;
20671;SDS011;10495;50.922;4.760;2022-10-31T13:11:17;10.87;;;7.20;;
20671;SDS011;10495;50.922;4.760;2022-10-31T13:16:16;15.00;;;7.93;;
20671;SDS011;10495;50.922;4.760;2022-10-31T13:24:14;15.37;;;7.90;;
20671;SDS011;10495;50.922;4.760;2022-10-31T13:26:55;12.07;;;7.47;;
20671;SDS011;10495;50.922;4.760;2022-10-31T13:29:37;15.93;;;8.20;;
20671;SDS011;10495;50.922;4.760;2022-10-31T13:32:07;18.30;;;6.90;;
20671;SDS011;10495;50.922;4.760;2022-10-31T13:34:37;11.93;;;7.40;;
20671;SDS011;10495;50.922;4.760;2022-10-31T13:45:18;16.50;;;7.67;;
20671;SDS011;10495;50.922;4.760;2022-10-31T13:50:56;16.10;;;8.17;;
20671;SDS011;10495;50.922;4.760;2022-10-31T13:56:44;17.60;;;10.27;;
20671;SDS011;10495;50.922;4.760;2022-10-31T13:59:16;16.30;;;9.33;;
20671;SDS011;10495;50.922;4.760;2022-10-31T14:01:56;18.07;;;9.73;;
20671;SDS011;10495;50.922;4.760;2022-10-31T14:07:17;19.60;;;9.27;;
20671;SDS011;10495;50.922;4.760;2022-10-31T14:12:28;17.57;;;10.60;;
20671;SDS011;10495;50.922;4.760;2022-10-31T14:15:02;21.00;;;11.17;;
20671;SDS011;10495;50.922;4.760;2022-10-31T14:17:29;14.43;;;9.63;;
20671;SDS011;10495;50.922;4.760;2022-10-31T14:20:21;25.67;;;10.37;;
20671;SDS011;10495;50.922;4.760;2022-10-31T14:23:10;20.13;;;10.83;;
20671;SDS011;10495;50.922;4.760;2022-10-31T14:25:53;22.33;;;10.73;;
20671;SDS011;10495;50.922;4.760;2022-10-31T14:28:31;16.53;;;9.47;;
20671;SDS011;10495;50.922;4.760;2022-10-31T14:30:58;25.80;;;11.57;;
20671;SDS011;10495;50.922;4.760;2022-10-31T14:33:26;16.00;;;10.60;;
20671;SDS011;10495;50.922;4.760;2022-10-31T14:51:47;16.90;;;10.03;;
20671;SDS011;10495;50.922;4.760;2022-10-31T14:54:15;19.73;;;9.77;;
20671;SDS011;10495;50.922;4.760;2022-10-31T14:56:48;19.30;;;10.87;;
20671;SDS011;10495;50.922;4.760;2022-10-31T14:59:19;22.20;;;10.63;;
20671;SDS011;10495;50.922;4.760;2022-10-31T15:01:54;23.83;;;10.60;;
20671;SDS011;10495;50.922;4.760;2022-10-31T15:04:29;19.20;;;11.00;;
20671;SDS011;10495;50.922;4.760;2022-10-31T15:07:02;15.73;;;9.33;;
20671;SDS011;10495;50.922;4.760;2022-10-31T15:09:39;17.60;;;10.00;;
20671;SDS011;10495;50.922;4.760;2022-10-31T15:14:53;22.90;;;9.80;;
20671;SDS011;10495;50.922;4.760;2022-10-31T15:17:20;15.20;;;10.50;;
20671;SDS011;10495;50.922;4.760;2022-10-31T15:19:50;21.47;;;10.57;;
20671;SDS011;10495;50.922;4.760;2022-10-31T15:22:17;23.93;;;9.67;;
20671;SDS011;10495;50.922;4.760;2022-10-31T15:24:45;18.63;;;9.77;;
20671;SDS011;10495;50.922;4.760;2022-10-31T15:27:14;19.63;;;10.83;;
20671;SDS011;10495;50.922;4.760;2022-10-31T15:29:51;18.67;;;10.07;;
20671;SDS011;10495;50.922;4.760;2022-10-31T15:32:20;18.53;;;9.93;;
20671;SDS011;10495;50.922;4.760;2022-10-31T15:34:48;18.10;;;10.77;;
20671;SDS011;10495;50.922;4.760;2022-10-31T15:37:18;15.70;;;11.60;;
20671;SDS011;10495;50.922;4.760;2022-10-31T15:39:45;17.37;;;10.30;;
20671;SDS011;10495;50.922;4.760;2022-10-31T15:42:19;23.83;;;12.20;;
20671;SDS011;10495;50.922;4.760;2022-10-31T15:44:46;19.87;;;12.40;;
20671;SDS011;10495;50.922;4.760;2022-10-31T15:47:25;24.37;;;12.93;;
20671;SDS011;10495;50.922;4.760;2022-10-31T15:49:52;19.27;;;11.90;;
20671;SDS011;10495;50.922;4.760;2022-10-31T15:54:56;15.87;;;11.13;;
20671;SDS011;10495;50.922;4.760;2022-10-31T15:57:25;19.40;;;11.07;;
20671;SDS011;10495;50.922;4.760;2022-10-31T15:59:54;19.30;;;11.90;;
20671;SDS011;10495;50.922;4.760;2022-10-31T16:02:22;21.17;;;12.00;;
20671;SDS011;10495;50.922;4.760;2022-10-31T16:04:50;19.30;;;12.03;;
20671;SDS011;10495;50.922;4.760;2022-10-31T16:07:23;23.60;;;11.27;;
20671;SDS011;10495;50.922;4.760;2022-10-31T16:09:57;23.20;;;11.40;;
20671;SDS011;10495;50.922;4.760;2022-10-31T16:12:23;17.93;;;11.17;;
20671;SDS011;10495;50.922;4.760;2022-10-31T16:14:52;31.70;;;12.13;;
20671;SDS011;10495;50.922;4.760;2022-10-31T16:17:20;16.50;;;10.77;;
20671;SDS011;10495;50.922;4.760;2022-10-31T16:19:52;21.97;;;11.43;;
20671;SDS011;10495;50.922;4.760;2022-10-31T16:22:31;23.93;;;12.70;;
20671;SDS011;10495;50.922;4.760;2022-10-31T16:25:45;20.07;;;10.60;;
20671;SDS011;10495;50.922;4.760;2022-10-31T16:27:54;18.27;;;11.07;;
20671;SDS011;10495;50.922;4.760;2022-10-31T16:30:37;22.60;;;11.47;;
20671;SDS011;10495;50.922;4.760;2022-10-31T16:33:10;20.30;;;10.67;;
20671;SDS011;10495;50.922;4.760;2022-10-31T16:35:47;20.03;;;11.57;;
20671;SDS011;10495;50.922;4.760;2022-10-31T16:38:13;16.20;;;9.93;;
20671;SDS011;10495;50.922;4.760;2022-10-31T16:40:39;17.43;;;10.07;;
20671;SDS011;10495;50.922;4.760;2022-10-31T16:43:05;18.83;;;10.60;;
20671;SDS011;10495;50.922;4.760;2022-10-31T16:45:37;20.07;;;10.67;;
20671;SDS011;10495;50.922;4.760;2022-10-31T16:48:13;15.07;;;9.13;;
20671;SDS011;10495;50.922;4.760;2022-10-31T16:50:40;15.50;;;8.80;;
20671;SDS011;10495;50.922;4.760;2022-10-31T16:53:08;17.60;;;8.30;;
20671;SDS011;10495;50.922;4.760;2022-10-31T16:55:34;17.43;;;8.17;;
20671;SDS011;10495;50.922;4.760;2022-10-31T16:58:06;15.63;;;7.73;;
20671;SDS011;10495;50.922;4.760;2022-10-31T17:00:42;10.83;;;6.83;;
20671;SDS011;10495;50.922;4.760;2022-10-31T17:03:08;19.97;;;8.10;;
20671;SDS011;10495;50.922;4.760;2022-10-31T17:05:35;17.97;;;5.90;;
20671;SDS011;10495;50.922;4.760;2022-10-31T17:08:02;15.67;;;7.33;;
20671;SDS011;10495;50.922;4.760;2022-10-31T17:10:28;13.90;;;7.03;;
20671;SDS011;10495;50.922;4.760;2022-10-31T17:12:54;12.67;;;6.70;;
20671;SDS011;10495;50.922;4.760;2022-10-31T17:15:23;15.33;;;7.27;;
20671;SDS011;10495;50.922;4.760;2022-10-31T17:17:50;12.67;;;7.10;;
20671;SDS011;10495;50.922;4.760;2022-10-31T17:22:44;12.03;;;5.67;;
20671;SDS011;10495;50.922;4.760;2022-10-31T17:25:12;12.83;;;5.80;;